BCS2MB EPWA-LOWW
Flight info
| Callsign | BCS2MB |
|---|---|
| Flight time | 0h 54m |
| Altitude | 34000 |
| Route | EVINA N744 TUSIN DCT MIKOV MIKOV8W |
| Aircraft | A306/H-SDE3FGHIRWY/LB1 |
Departure
| Time | 2026-05-05 16:08 |
|---|---|
| Airport | Warsaw Chopin Airport (EPWA) |
Arrival
| Time | 2026-05-05 17:03 |
|---|---|
| Airport | Vienna International Airport (LOWW) |
| Time | Latitude | Longitude | Altitude | Speed | Heading |
|---|---|---|---|---|---|
| 2026-05-05 15:45 | 52.15515 | 20.98182 | 352 ft | 0 kts | 62° |
| 2026-05-05 16:00 | 52.15507 | 20.98157 | 358 ft | 4 kts | 62° |
| 2026-05-05 16:00 | 52.15494 | 20.98118 | 356 ft | 3 kts | 62° |
| 2026-05-05 16:00 | 52.15482 | 20.98088 | 356 ft | 4 kts | 28° |
| 2026-05-05 16:01 | 52.15459 | 20.98086 | 354 ft | 4 kts | 336° |
| 2026-05-05 16:01 | 52.15445 | 20.98096 | 356 ft | 1 kts | 332° |
| 2026-05-05 16:01 | 52.15444 | 20.98098 | 356 ft | 0 kts | 332° |
| 2026-05-05 16:04 | 52.15479 | 20.98067 | 353 ft | 14 kts | 332° |
| 2026-05-05 16:04 | 52.15507 | 20.98042 | 353 ft | 0 kts | 332° |
| 2026-05-05 16:05 | 52.15515 | 20.98035 | 345 ft | 7 kts | 332° |
| 2026-05-05 16:05 | 52.15609 | 20.98008 | 353 ft | 17 kts | 14° |
| 2026-05-05 16:06 | 52.15710 | 20.98086 | 348 ft | 16 kts | 26° |
| 2026-05-05 16:06 | 52.15805 | 20.98158 | 352 ft | 14 kts | 25° |
| 2026-05-05 16:06 | 52.15913 | 20.98238 | 350 ft | 22 kts | 24° |
| 2026-05-05 16:06 | 52.16088 | 20.98367 | 349 ft | 33 kts | 24° |
| 2026-05-05 16:07 | 52.16172 | 20.98319 | 348 ft | 10 kts | 261° |
| 2026-05-05 16:07 | 52.16173 | 20.98150 | 350 ft | 21 kts | 290° |
| 2026-05-05 16:07 | 52.16301 | 20.97689 | 350 ft | 77 kts | 295° |
| 2026-05-05 16:07 | 52.16612 | 20.96583 | 357 ft | 135 kts | 294° |
| 2026-05-05 16:08 | 52.17073 | 20.94947 | 376 ft | 181 kts | 292° |
| 2026-05-05 16:08 | 52.17636 | 20.93092 | 1057 ft | 182 kts | 294° |
| 2026-05-05 16:08 | 52.18108 | 20.91210 | 1891 ft | 178 kts | 281° |
| 2026-05-05 16:08 | 52.18177 | 20.89066 | 2184 ft | 207 kts | 258° |
| 2026-05-05 16:09 | 52.17855 | 20.86680 | 2693 ft | 226 kts | 252° |
| 2026-05-05 16:09 | 52.17457 | 20.84065 | 3105 ft | 250 kts | 253° |
| 2026-05-05 16:09 | 52.17061 | 20.81263 | 3940 ft | 255 kts | 255° |
| 2026-05-05 16:09 | 52.16681 | 20.78444 | 4941 ft | 255 kts | 255° |
| 2026-05-05 16:10 | 52.16304 | 20.75612 | 5912 ft | 257 kts | 255° |
| 2026-05-05 16:10 | 52.15916 | 20.72759 | 6856 ft | 259 kts | 253° |
| 2026-05-05 16:10 | 52.15091 | 20.70199 | 7800 ft | 258 kts | 225° |
| 2026-05-05 16:10 | 52.13720 | 20.68309 | 8807 ft | 259 kts | 217° |
| 2026-05-05 16:11 | 52.12267 | 20.66540 | 9743 ft | 263 kts | 217° |
| 2026-05-05 16:11 | 52.07504 | 20.60648 | 11000 ft | 315 kts | 218° |
| 2026-05-05 16:12 | 52.05724 | 20.58412 | 11296 ft | 332 kts | 219° |
| 2026-05-05 16:12 | 52.01953 | 20.53668 | 12278 ft | 349 kts | 219° |
| 2026-05-05 16:13 | 51.96081 | 20.46391 | 14181 ft | 360 kts | 215° |
| 2026-05-05 16:13 | 51.93803 | 20.44620 | 14677 ft | 370 kts | 200° |
| 2026-05-05 16:13 | 51.91245 | 20.43855 | 15217 ft | 378 kts | 190° |
| 2026-05-05 16:14 | 51.85943 | 20.43074 | 16334 ft | 386 kts | 188° |
| 2026-05-05 16:14 | 51.80539 | 20.42288 | 17462 ft | 394 kts | 188° |
| 2026-05-05 16:15 | 51.75029 | 20.41464 | 18470 ft | 401 kts | 188° |
| 2026-05-05 16:15 | 51.69424 | 20.40616 | 19367 ft | 408 kts | 188° |
| 2026-05-05 16:16 | 51.63723 | 20.39754 | 20234 ft | 415 kts | 188° |
| 2026-05-05 16:16 | 51.57934 | 20.38879 | 21084 ft | 421 kts | 188° |
| 2026-05-05 16:17 | 51.52097 | 20.37998 | 21914 ft | 427 kts | 188° |
| 2026-05-05 16:17 | 51.49127 | 20.37551 | 22300 ft | 430 kts | 188° |
| 2026-05-05 16:18 | 51.43131 | 20.36603 | 23089 ft | 435 kts | 190° |
| 2026-05-05 16:18 | 51.40169 | 20.35596 | 23436 ft | 435 kts | 199° |
| 2026-05-05 16:18 | 51.34782 | 20.31284 | 24097 ft | 434 kts | 216° |
| 2026-05-05 16:19 | 51.32318 | 20.28479 | 24434 ft | 436 kts | 218° |
| 2026-05-05 16:19 | 51.29900 | 20.25553 | 24742 ft | 437 kts | 219° |
| 2026-05-05 16:19 | 51.25072 | 20.19578 | 25351 ft | 441 kts | 219° |
| 2026-05-05 16:20 | 51.20185 | 20.13608 | 25911 ft | 445 kts | 219° |
| 2026-05-05 16:20 | 51.15233 | 20.07657 | 26493 ft | 447 kts | 218° |
| 2026-05-05 16:21 | 51.10234 | 20.01694 | 27028 ft | 450 kts | 218° |
| 2026-05-05 16:22 | 51.02667 | 19.92720 | 27776 ft | 454 kts | 218° |
| 2026-05-05 16:22 | 50.97606 | 19.86736 | 28469 ft | 452 kts | 218° |
| 2026-05-05 16:23 | 50.92578 | 19.80802 | 29236 ft | 449 kts | 218° |
| 2026-05-05 16:23 | 50.90077 | 19.77856 | 29618 ft | 447 kts | 218° |
| 2026-05-05 16:23 | 50.85129 | 19.72038 | 30267 ft | 445 kts | 218° |
| 2026-05-05 16:24 | 50.82611 | 19.69082 | 30529 ft | 445 kts | 218° |
| 2026-05-05 16:24 | 50.80126 | 19.66170 | 30803 ft | 444 kts | 218° |
| 2026-05-05 16:24 | 50.75160 | 19.60360 | 31351 ft | 444 kts | 218° |
| 2026-05-05 16:25 | 50.72679 | 19.57465 | 31626 ft | 443 kts | 218° |
| 2026-05-05 16:25 | 50.67753 | 19.51728 | 32169 ft | 443 kts | 218° |
| 2026-05-05 16:25 | 50.65274 | 19.48846 | 32449 ft | 443 kts | 218° |
| 2026-05-05 16:26 | 50.60313 | 19.43090 | 32964 ft | 443 kts | 218° |
| 2026-05-05 16:26 | 50.55346 | 19.37343 | 33523 ft | 443 kts | 218° |
| 2026-05-05 16:27 | 50.52861 | 19.34473 | 33767 ft | 443 kts | 218° |
| 2026-05-05 16:27 | 50.50393 | 19.31628 | 33787 ft | 436 kts | 218° |
| 2026-05-05 16:27 | 50.45569 | 19.26080 | 33803 ft | 426 kts | 218° |
| 2026-05-05 16:28 | 50.40791 | 19.20595 | 33804 ft | 426 kts | 218° |
| 2026-05-05 16:28 | 50.35997 | 19.15103 | 33803 ft | 427 kts | 218° |
| 2026-05-05 16:29 | 50.31200 | 19.09624 | 33802 ft | 427 kts | 218° |
| 2026-05-05 16:29 | 50.26401 | 19.04157 | 33804 ft | 427 kts | 217° |
| 2026-05-05 16:30 | 50.21602 | 18.98705 | 33808 ft | 427 kts | 217° |
| 2026-05-05 16:30 | 50.16796 | 18.93258 | 33806 ft | 427 kts | 217° |
| 2026-05-05 16:31 | 50.11988 | 18.87823 | 33810 ft | 427 kts | 217° |
| 2026-05-05 16:31 | 50.07173 | 18.82393 | 33816 ft | 427 kts | 217° |
| 2026-05-05 16:32 | 50.02358 | 18.76976 | 33807 ft | 427 kts | 217° |
| 2026-05-05 16:32 | 49.97548 | 18.71580 | 33812 ft | 426 kts | 217° |
| 2026-05-05 16:33 | 49.92781 | 18.66246 | 33808 ft | 425 kts | 217° |
| 2026-05-05 16:33 | 49.87981 | 18.60886 | 33808 ft | 426 kts | 217° |
| 2026-05-05 16:34 | 49.83574 | 18.54850 | 33818 ft | 423 kts | 230° |
| 2026-05-05 16:34 | 49.79801 | 18.47844 | 33809 ft | 424 kts | 232° |
| 2026-05-05 16:35 | 49.76076 | 18.40800 | 33808 ft | 424 kts | 232° |
| 2026-05-05 16:35 | 49.72340 | 18.33738 | 33809 ft | 423 kts | 231° |
| 2026-05-05 16:36 | 49.68614 | 18.26708 | 33801 ft | 423 kts | 231° |
| 2026-05-05 16:36 | 49.64885 | 18.19693 | 33799 ft | 422 kts | 231° |
| 2026-05-05 16:37 | 49.61153 | 18.12688 | 33798 ft | 423 kts | 232° |
| 2026-05-05 16:37 | 49.57423 | 18.05706 | 33803 ft | 422 kts | 231° |
| 2026-05-05 16:38 | 49.53685 | 17.98729 | 33808 ft | 422 kts | 231° |
| 2026-05-05 16:38 | 49.49912 | 17.91701 | 33810 ft | 431 kts | 231° |
| 2026-05-05 16:39 | 49.46066 | 17.84560 | 33805 ft | 434 kts | 231° |
| 2026-05-05 16:39 | 49.42211 | 17.77421 | 33808 ft | 434 kts | 231° |
| 2026-05-05 16:40 | 49.38351 | 17.70293 | 33716 ft | 433 kts | 231° |
| 2026-05-05 16:40 | 49.36430 | 17.66752 | 33277 ft | 432 kts | 231° |
| 2026-05-05 16:40 | 49.34504 | 17.63206 | 32451 ft | 433 kts | 231° |
| 2026-05-05 16:41 | 49.32571 | 17.59652 | 31486 ft | 436 kts | 231° |
| 2026-05-05 16:41 | 49.30621 | 17.56073 | 30573 ft | 439 kts | 231° |
| 2026-05-05 16:41 | 49.28675 | 17.52508 | 30118 ft | 431 kts | 231° |
| 2026-05-05 16:41 | 49.26771 | 17.49024 | 29488 ft | 425 kts | 231° |
| 2026-05-05 16:42 | 49.24875 | 17.45557 | 28620 ft | 425 kts | 231° |
| 2026-05-05 16:42 | 49.22982 | 17.42099 | 27983 ft | 420 kts | 231° |
| 2026-05-05 16:42 | 49.21126 | 17.38717 | 27582 ft | 410 kts | 231° |
| 2026-05-05 16:42 | 49.19296 | 17.35384 | 26795 ft | 410 kts | 231° |
| 2026-05-05 16:43 | 49.17468 | 17.32058 | 25977 ft | 407 kts | 231° |
| 2026-05-05 16:43 | 49.15665 | 17.28782 | 25085 ft | 399 kts | 231° |
| 2026-05-05 16:43 | 49.13904 | 17.25588 | 24340 ft | 388 kts | 230° |
| 2026-05-05 16:43 | 49.12168 | 17.22440 | 23216 ft | 389 kts | 230° |
| 2026-05-05 16:44 | 49.10420 | 17.19276 | 22142 ft | 387 kts | 230° |
| 2026-05-05 16:44 | 49.08717 | 17.16197 | 21360 ft | 376 kts | 230° |
| 2026-05-05 16:44 | 49.07609 | 17.14196 | 20895 ft | 369 kts | 230° |
| 2026-05-05 16:44 | 49.05981 | 17.11260 | 20351 ft | 356 kts | 230° |
| 2026-05-05 16:45 | 49.04411 | 17.08429 | 19880 ft | 343 kts | 230° |
| 2026-05-05 16:45 | 49.02389 | 17.04857 | 19185 ft | 331 kts | 227° |
| 2026-05-05 16:45 | 49.00642 | 17.02568 | 18231 ft | 336 kts | 216° |
| 2026-05-05 16:45 | 48.98608 | 17.00726 | 17251 ft | 340 kts | 210° |
| 2026-05-05 16:46 | 48.96562 | 16.99088 | 16874 ft | 325 kts | 208° |
| 2026-05-05 16:46 | 48.95197 | 16.98015 | 16719 ft | 330 kts | 208° |
| 2026-05-05 16:46 | 48.93149 | 16.96423 | 16459 ft | 331 kts | 208° |
| 2026-05-05 16:46 | 48.91097 | 16.94838 | 16194 ft | 330 kts | 208° |
| 2026-05-05 16:47 | 48.89068 | 16.93270 | 15922 ft | 325 kts | 208° |
| 2026-05-05 16:47 | 48.87056 | 16.91715 | 15683 ft | 324 kts | 208° |
| 2026-05-05 16:47 | 48.85040 | 16.90160 | 15429 ft | 326 kts | 208° |
| 2026-05-05 16:47 | 48.83021 | 16.88604 | 15192 ft | 323 kts | 208° |
| 2026-05-05 16:48 | 48.81031 | 16.87047 | 14922 ft | 319 kts | 210° |
| 2026-05-05 16:48 | 48.79175 | 16.85184 | 14222 ft | 323 kts | 216° |
| 2026-05-05 16:48 | 48.77363 | 16.83112 | 13419 ft | 330 kts | 217° |
| 2026-05-05 16:48 | 48.75566 | 16.80994 | 12436 ft | 327 kts | 218° |
| 2026-05-05 16:49 | 48.73810 | 16.78902 | 11847 ft | 313 kts | 218° |
| 2026-05-05 16:49 | 48.72140 | 16.76905 | 11388 ft | 300 kts | 218° |
| 2026-05-05 16:49 | 48.70509 | 16.74954 | 10949 ft | 298 kts | 218° |
| 2026-05-05 16:49 | 48.68893 | 16.73019 | 10649 ft | 292 kts | 218° |
| 2026-05-05 16:50 | 48.67342 | 16.71162 | 10543 ft | 278 kts | 218° |
| 2026-05-05 16:50 | 48.65875 | 16.69405 | 10344 ft | 272 kts | 218° |
| 2026-05-05 16:50 | 48.64357 | 16.67588 | 9845 ft | 276 kts | 218° |
| 2026-05-05 16:50 | 48.62853 | 16.65790 | 9407 ft | 276 kts | 218° |
| 2026-05-05 16:51 | 48.61386 | 16.64037 | 9152 ft | 268 kts | 218° |
| 2026-05-05 16:51 | 48.59942 | 16.62311 | 8794 ft | 265 kts | 218° |
| 2026-05-05 16:51 | 48.58473 | 16.60558 | 8222 ft | 271 kts | 218° |
| 2026-05-05 16:51 | 48.57017 | 16.58822 | 7900 ft | 262 kts | 218° |
| 2026-05-05 16:52 | 48.55581 | 16.57113 | 7406 ft | 255 kts | 217° |
| 2026-05-05 16:52 | 48.54214 | 16.55483 | 7023 ft | 246 kts | 217° |
| 2026-05-05 16:52 | 48.52877 | 16.53891 | 6431 ft | 246 kts | 217° |
| 2026-05-05 16:52 | 48.51549 | 16.52313 | 5940 ft | 241 kts | 217° |
| 2026-05-05 16:53 | 48.50236 | 16.50752 | 5399 ft | 238 kts | 216° |
| 2026-05-05 16:53 | 48.48947 | 16.49221 | 4954 ft | 233 kts | 216° |
| 2026-05-05 16:53 | 48.47694 | 16.47734 | 4565 ft | 226 kts | 215° |
| 2026-05-05 16:53 | 48.46481 | 16.46297 | 4319 ft | 225 kts | 215° |
| 2026-05-05 16:54 | 48.45249 | 16.44839 | 4146 ft | 226 kts | 215° |
| 2026-05-05 16:54 | 48.43989 | 16.43418 | 4000 ft | 227 kts | 210° |
| 2026-05-05 16:54 | 48.42621 | 16.42247 | 3972 ft | 226 kts | 205° |
| 2026-05-05 16:54 | 48.41221 | 16.41146 | 3974 ft | 227 kts | 205° |
| 2026-05-05 16:55 | 48.39833 | 16.40058 | 3962 ft | 225 kts | 205° |
| 2026-05-05 16:55 | 48.38440 | 16.38959 | 3946 ft | 227 kts | 205° |
| 2026-05-05 16:55 | 48.37030 | 16.37883 | 3947 ft | 228 kts | 203° |
| 2026-05-05 16:55 | 48.35569 | 16.36957 | 3884 ft | 228 kts | 200° |
| 2026-05-05 16:56 | 48.34101 | 16.36085 | 3686 ft | 226 kts | 200° |
| 2026-05-05 16:56 | 48.32640 | 16.35218 | 3507 ft | 224 kts | 200° |
| 2026-05-05 16:56 | 48.31232 | 16.34350 | 3455 ft | 213 kts | 200° |
| 2026-05-05 16:56 | 48.29873 | 16.33508 | 3463 ft | 211 kts | 200° |
| 2026-05-05 16:57 | 48.28510 | 16.32689 | 3457 ft | 211 kts | 200° |
| 2026-05-05 16:57 | 48.27129 | 16.31892 | 3477 ft | 214 kts | 200° |
| 2026-05-05 16:57 | 48.25756 | 16.31087 | 3496 ft | 209 kts | 200° |
| 2026-05-05 16:57 | 48.24426 | 16.30294 | 3461 ft | 202 kts | 200° |
| 2026-05-05 16:58 | 48.23116 | 16.29590 | 3469 ft | 199 kts | 191° |
| 2026-05-05 16:58 | 48.21764 | 16.29813 | 3471 ft | 201 kts | 159° |
| 2026-05-05 16:58 | 48.20592 | 16.30992 | 3479 ft | 204 kts | 147° |
| 2026-05-05 16:58 | 48.19503 | 16.32367 | 3479 ft | 206 kts | 143° |
| 2026-05-05 16:59 | 48.18589 | 16.34010 | 3430 ft | 206 kts | 129° |
| 2026-05-05 16:59 | 48.17939 | 16.35870 | 3186 ft | 198 kts | 122° |
| 2026-05-05 16:59 | 48.17371 | 16.37691 | 2929 ft | 188 kts | 122° |
| 2026-05-05 16:59 | 48.16806 | 16.39415 | 2668 ft | 182 kts | 123° |
| 2026-05-05 17:00 | 48.16253 | 16.41109 | 2409 ft | 178 kts | 124° |
| 2026-05-05 17:00 | 48.15729 | 16.42730 | 2181 ft | 168 kts | 124° |
| 2026-05-05 17:00 | 48.15243 | 16.44231 | 1941 ft | 154 kts | 125° |
| 2026-05-05 17:00 | 48.14802 | 16.45593 | 1717 ft | 136 kts | 127° |
| 2026-05-05 17:01 | 48.14404 | 16.46815 | 1555 ft | 129 kts | 128° |
| 2026-05-05 17:01 | 48.14003 | 16.48038 | 1386 ft | 134 kts | 126° |
| 2026-05-05 17:01 | 48.13586 | 16.49316 | 1208 ft | 137 kts | 125° |
| 2026-05-05 17:01 | 48.13176 | 16.50582 | 1025 ft | 134 kts | 124° |
| 2026-05-05 17:02 | 48.12772 | 16.51830 | 838 ft | 132 kts | 125° |
| 2026-05-05 17:02 | 48.12385 | 16.53035 | 675 ft | 127 kts | 124° |
| 2026-05-05 17:02 | 48.11998 | 16.54198 | 626 ft | 114 kts | 116° |
| 2026-05-05 17:02 | 48.11742 | 16.54996 | 630 ft | 65 kts | 116° |
| 2026-05-05 17:03 | 48.11565 | 16.55535 | 625 ft | 43 kts | 116° |
| 2026-05-05 17:03 | 48.11500 | 16.55923 | 615 ft | 35 kts | 89° |
| 2026-05-05 17:03 | 48.11536 | 16.56127 | 624 ft | 17 kts | 28° |
| 2026-05-05 17:03 | 48.11611 | 16.56050 | 626 ft | 14 kts | 297° |
| 2026-05-05 17:04 | 48.11659 | 16.55902 | 629 ft | 18 kts | 295° |
| 2026-05-05 17:04 | 48.11710 | 16.55736 | 626 ft | 17 kts | 295° |
| 2026-05-05 17:04 | 48.11760 | 16.55582 | 628 ft | 16 kts | 296° |
| 2026-05-05 17:04 | 48.11807 | 16.55439 | 625 ft | 15 kts | 296° |
| 2026-05-05 17:05 | 48.11851 | 16.55304 | 620 ft | 14 kts | 296° |
| 2026-05-05 17:05 | 48.11903 | 16.55194 | 625 ft | 12 kts | 336° |
| 2026-05-05 17:05 | 48.11949 | 16.55233 | 623 ft | 10 kts | 73° |
| 2026-05-05 17:05 | 48.11912 | 16.55380 | 625 ft | 17 kts | 98° |
| 2026-05-05 17:06 | 48.11982 | 16.55486 | 627 ft | 15 kts | 25° |
| 2026-05-05 17:06 | 48.12065 | 16.55521 | 625 ft | 10 kts | 333° |
| 2026-05-05 17:06 | 48.12085 | 16.55475 | 627 ft | 0 kts | 297° |